sensor_id;sensor_type;location;lat;lon;timestamp;pressure;altitude;pressure_sealevel;temperature;humidity
81704;BME280;71117;52.352;4.808;2023-10-13T00:02:06;101126.81;;;19.86;81.78
81704;BME280;71117;52.352;4.808;2023-10-13T00:04:33;101133.84;;;19.33;84.10
81704;BME280;71117;52.352;4.808;2023-10-13T00:07:01;101130.22;;;19.37;83.81
81704;BME280;71117;52.352;4.808;2023-10-13T00:09:28;101129.28;;;19.39;83.71
81704;BME280;71117;52.352;4.808;2023-10-13T00:12:04;101128.53;;;19.29;84.01
81704;BME280;71117;52.352;4.808;2023-10-13T00:14:30;101126.00;;;19.20;84.63
81704;BME280;71117;52.352;4.808;2023-10-13T00:17:00;101125.91;;;19.26;84.77
81704;BME280;71117;52.352;4.808;2023-10-13T00:19:40;101120.41;;;19.36;84.52
81704;BME280;71117;52.352;4.808;2023-10-13T00:22:20;101117.84;;;19.28;84.57
81704;BME280;71117;52.352;4.808;2023-10-13T00:24:47;101111.63;;;19.26;85.06
81704;BME280;71117;52.352;4.808;2023-10-13T00:27:20;101113.41;;;19.27;85.25
81704;BME280;71117;52.352;4.808;2023-10-13T00:30:06;101112.63;;;19.17;85.31
81704;BME280;71117;52.352;4.808;2023-10-13T00:32:51;101105.44;;;19.21;85.21
81704;BME280;71117;52.352;4.808;2023-10-13T00:35:20;101109.84;;;19.23;84.86
81704;BME280;71117;52.352;4.808;2023-10-13T00:38:15;101093.88;;;19.17;85.26
81704;BME280;71117;52.352;4.808;2023-10-13T00:40:44;101093.00;;;19.17;85.57
81704;BME280;71117;52.352;4.808;2023-10-13T00:43:17;101092.06;;;19.21;85.14
81704;BME280;71117;52.352;4.808;2023-10-13T00:45:47;101085.03;;;18.37;88.72
81704;BME280;71117;52.352;4.808;2023-10-13T00:48:30;101079.81;;;18.23;90.04
81704;BME280;71117;52.352;4.808;2023-10-13T00:51:01;101086.09;;;18.20;90.29
81704;BME280;71117;52.352;4.808;2023-10-13T00:53:34;101086.13;;;18.16;90.16
81704;BME280;71117;52.352;4.808;2023-10-13T00:56:03;101071.97;;;18.08;90.92
81704;BME280;71117;52.352;4.808;2023-10-13T00:58:35;101082.63;;;18.09;90.69
81704;BME280;71117;52.352;4.808;2023-10-13T01:01:04;101071.19;;;17.96;91.25
81704;BME280;71117;52.352;4.808;2023-10-13T01:03:52;101068.53;;;17.93;91.25
81704;BME280;71117;52.352;4.808;2023-10-13T01:06:23;101070.28;;;17.97;91.49
81704;BME280;71117;52.352;4.808;2023-10-13T01:09:05;101065.75;;;18.04;90.99
81704;BME280;71117;52.352;4.808;2023-10-13T01:11:48;101052.38;;;18.07;91.04
81704;BME280;71117;52.352;4.808;2023-10-13T01:14:17;101045.19;;;18.12;90.58
81704;BME280;71117;52.352;4.808;2023-10-13T01:16:44;101038.09;;;18.10;90.85
81704;BME280;71117;52.352;4.808;2023-10-13T01:19:12;101041.69;;;18.06;91.05
81704;BME280;71117;52.352;4.808;2023-10-13T01:21:38;101045.25;;;18.06;90.94
81704;BME280;71117;52.352;4.808;2023-10-13T01:24:06;101038.13;;;18.05;91.42
81704;BME280;71117;52.352;4.808;2023-10-13T01:26:34;101033.59;;;18.12;91.18
81704;BME280;71117;52.352;4.808;2023-10-13T01:29:07;101032.44;;;18.37;89.89
81704;BME280;71117;52.352;4.808;2023-10-13T01:31:43;101035.91;;;18.47;89.37
81704;BME280;71117;52.352;4.808;2023-10-13T01:34:13;101026.53;;;18.08;90.94
81704;BME280;71117;52.352;4.808;2023-10-13T01:36:39;101020.25;;;18.10;90.82
81704;BME280;71117;52.352;4.808;2023-10-13T01:39:07;101024.56;;;18.25;90.09
81704;BME280;71117;52.352;4.808;2023-10-13T01:41:32;101031.72;;;18.24;90.33
81704;BME280;71117;52.352;4.808;2023-10-13T01:44:02;101022.19;;;17.97;91.04
81704;BME280;71117;52.352;4.808;2023-10-13T01:46:28;101014.06;;;18.07;90.73
81704;BME280;71117;52.352;4.808;2023-10-13T01:48:53;101019.34;;;18.11;90.57
81704;BME280;71117;52.352;4.808;2023-10-13T01:51:19;101021.13;;;18.14;90.27
81704;BME280;71117;52.352;4.808;2023-10-13T01:53:48;101013.19;;;18.08;90.59
81704;BME280;71117;52.352;4.808;2023-10-13T01:56:21;101011.28;;;18.16;90.57
81704;BME280;71117;52.352;4.808;2023-10-13T01:58:48;101010.50;;;18.08;90.92
81704;BME280;71117;52.352;4.808;2023-10-13T02:01:14;100999.81;;;18.06;91.16
81704;BME280;71117;52.352;4.808;2023-10-13T02:03:51;100998.91;;;18.09;91.31
81704;BME280;71117;52.352;4.808;2023-10-13T02:06:26;100993.56;;;18.06;91.31
81704;BME280;71117;52.352;4.808;2023-10-13T02:08:57;100983.78;;;18.06;91.07
81704;BME280;71117;52.352;4.808;2023-10-13T02:11:23;100986.38;;;18.12;90.97
81704;BME280;71117;52.352;4.808;2023-10-13T02:13:48;100977.34;;;18.22;90.68
81704;BME280;71117;52.352;4.808;2023-10-13T02:16:16;100977.34;;;18.24;90.28
81704;BME280;71117;52.352;4.808;2023-10-13T02:18:44;100973.78;;;18.22;90.84
81704;BME280;71117;52.352;4.808;2023-10-13T02:21:11;100958.84;;;18.06;91.38
81704;BME280;71117;52.352;4.808;2023-10-13T02:23:40;100971.25;;;18.13;90.97
81704;BME280;71117;52.352;4.808;2023-10-13T02:26:24;100958.78;;;18.10;91.08
81704;BME280;71117;52.352;4.808;2023-10-13T02:29:00;100948.13;;;18.09;91.22
81704;BME280;71117;52.352;4.808;2023-10-13T02:31:30;100949.97;;;18.04;91.33
81704;BME280;71117;52.352;4.808;2023-10-13T02:33:55;100942.53;;;18.29;91.10
81704;BME280;71117;52.352;4.808;2023-10-13T02:36:21;100939.72;;;18.39;89.60
81704;BME280;71117;52.352;4.808;2023-10-13T02:39:02;100941.53;;;18.37;89.56
81704;BME280;71117;52.352;4.808;2023-10-13T02:41:32;100927.09;;;18.50;88.81
81704;BME280;71117;52.352;4.808;2023-10-13T02:43:58;100930.66;;;18.51;88.65
81704;BME280;71117;52.352;4.808;2023-10-13T02:46:24;100916.88;;;18.15;90.45
81704;BME280;71117;52.352;4.808;2023-10-13T02:48:54;100916.13;;;18.03;91.10
81704;BME280;71117;52.352;4.808;2023-10-13T02:51:22;100900.19;;;17.93;91.56
81704;BME280;71117;52.352;4.808;2023-10-13T02:53:55;100900.16;;;17.98;91.30
81704;BME280;71117;52.352;4.808;2023-10-13T02:56:27;100901.97;;;17.96;91.43
81704;BME280;71117;52.352;4.808;2023-10-13T02:58:53;100885.94;;;17.96;91.63
81704;BME280;71117;52.352;4.808;2023-10-13T03:01:19;100880.56;;;17.97;91.51
81704;BME280;71117;52.352;4.808;2023-10-13T03:03:47;100882.31;;;18.00;91.06
81704;BME280;71117;52.352;4.808;2023-10-13T03:06:16;100865.38;;;18.03;91.08
81704;BME280;71117;52.352;4.808;2023-10-13T03:08:42;100866.22;;;18.05;90.80
81704;BME280;71117;52.352;4.808;2023-10-13T03:11:09;100853.78;;;18.02;90.92
81704;BME280;71117;52.352;4.808;2023-10-13T03:13:35;100844.16;;;17.87;91.52
81704;BME280;71117;52.352;4.808;2023-10-13T03:16:00;100839.72;;;17.88;91.44
81704;BME280;71117;52.352;4.808;2023-10-13T03:18:27;100832.53;;;17.93;91.36
81704;BME280;71117;52.352;4.808;2023-10-13T03:20:59;100824.53;;;17.91;91.49
81704;BME280;71117;52.352;4.808;2023-10-13T03:23:27;100814.59;;;18.01;90.83
81704;BME280;71117;52.352;4.808;2023-10-13T03:25:52;100809.97;;;18.12;90.54
81704;BME280;71117;52.352;4.808;2023-10-13T03:28:20;100812.75;;;18.06;90.61
81704;BME280;71117;52.352;4.808;2023-10-13T03:30:50;100790.72;;;17.89;91.34
81704;BME280;71117;52.352;4.808;2023-10-13T03:33:17;100789.09;;;17.77;92.06
81704;BME280;71117;52.352;4.808;2023-10-13T03:35:51;100770.38;;;17.80;91.82
81704;BME280;71117;52.352;4.808;2023-10-13T03:38:20;100789.06;;;17.79;91.73
81704;BME280;71117;52.352;4.808;2023-10-13T03:40:47;100782.91;;;17.74;92.00
81704;BME280;71117;52.352;4.808;2023-10-13T03:43:21;100759.69;;;17.80;91.99
81704;BME280;71117;52.352;4.808;2023-10-13T03:45:48;100757.13;;;17.66;92.46
81704;BME280;71117;52.352;4.808;2023-10-13T03:48:18;100741.84;;;17.82;91.75
81704;BME280;71117;52.352;4.808;2023-10-13T03:50:50;100735.59;;;17.82;91.79
81704;BME280;71117;52.352;4.808;2023-10-13T03:53:36;100739.28;;;17.73;92.15
81704;BME280;71117;52.352;4.808;2023-10-13T03:56:05;100731.75;;;18.01;91.50
81704;BME280;71117;52.352;4.808;2023-10-13T03:58:38;100734.41;;;18.04;90.56
81704;BME280;71117;52.352;4.808;2023-10-13T04:01:04;100725.53;;;18.02;90.57
81704;BME280;71117;52.352;4.808;2023-10-13T04:03:30;100736.06;;;18.13;89.94
81704;BME280;71117;52.352;4.808;2023-10-13T04:06:01;100722.63;;;18.16;89.90
81704;BME280;71117;52.352;4.808;2023-10-13T04:08:31;100717.44;;;18.05;89.85
81704;BME280;71117;52.352;4.808;2023-10-13T04:11:32;100714.88;;;17.99;90.09
81704;BME280;71117;52.352;4.808;2023-10-13T04:14:27;100693.41;;;18.05;89.74
81704;BME280;71117;52.352;4.808;2023-10-13T04:17:10;100691.81;;;17.93;90.04
81704;BME280;71117;52.352;4.808;2023-10-13T04:19:48;100692.81;;;17.86;90.54
81704;BME280;71117;52.352;4.808;2023-10-13T04:22:44;100687.56;;;17.80;90.95
81704;BME280;71117;52.352;4.808;2023-10-13T04:25:16;100670.78;;;17.69;91.38
81704;BME280;71117;52.352;4.808;2023-10-13T04:28:09;100675.19;;;17.70;91.44
81704;BME280;71117;52.352;4.808;2023-10-13T04:30:52;100673.63;;;17.57;91.43
81704;BME280;71117;52.352;4.808;2023-10-13T04:33:20;100659.41;;;17.53;91.41
81704;BME280;71117;52.352;4.808;2023-10-13T04:36:10;100652.44;;;17.43;91.65
81704;BME280;71117;52.352;4.808;2023-10-13T04:38:46;100661.38;;;17.39;91.74
81704;BME280;71117;52.352;4.808;2023-10-13T04:41:42;100658.69;;;17.42;92.10
81704;BME280;71117;52.352;4.808;2023-10-13T04:44:07;100656.09;;;17.36;92.08
81704;BME280;71117;52.352;4.808;2023-10-13T04:46:52;100651.66;;;17.35;92.40
81704;BME280;71117;52.352;4.808;2023-10-13T04:49:24;100637.44;;;17.34;92.54
81704;BME280;71117;52.352;4.808;2023-10-13T04:52:08;100625.94;;;17.28;92.94
81704;BME280;71117;52.352;4.808;2023-10-13T04:54:35;100621.34;;;17.39;92.67
81704;BME280;71117;52.352;4.808;2023-10-13T04:57:17;100613.38;;;17.37;92.96
81704;BME280;71117;52.352;4.808;2023-10-13T05:00:03;100601.72;;;17.43;93.21
81704;BME280;71117;52.352;4.808;2023-10-13T05:02:55;100599.72;;;17.56;92.86
81704;BME280;71117;52.352;4.808;2023-10-13T05:05:44;100602.91;;;17.85;91.86
81704;BME280;71117;52.352;4.808;2023-10-13T05:08:29;100604.88;;;17.69;92.16
81704;BME280;71117;52.352;4.808;2023-10-13T05:11:13;100599.66;;;17.63;93.71
81704;BME280;71117;52.352;4.808;2023-10-13T05:13:57;100607.59;;;17.66;93.64
81704;BME280;71117;52.352;4.808;2023-10-13T05:16:41;100603.88;;;17.78;93.50
81704;BME280;71117;52.352;4.808;2023-10-13T05:19:25;100596.75;;;17.80;93.90
81704;BME280;71117;52.352;4.808;2023-10-13T05:22:09;100611.78;;;17.84;93.98
81704;BME280;71117;52.352;4.808;2023-10-13T05:24:53;100604.72;;;17.82;92.99
81704;BME280;71117;52.352;4.808;2023-10-13T05:27:37;100603.31;;;18.13;91.89
81704;BME280;71117;52.352;4.808;2023-10-13T05:30:21;100595.16;;;18.21;91.31
81704;BME280;71117;52.352;4.808;2023-10-13T05:33:05;100596.91;;;18.22;91.31
81704;BME280;71117;52.352;4.808;2023-10-13T05:35:50;100598.72;;;18.20;90.95
81704;BME280;71117;52.352;4.808;2023-10-13T05:38:34;100603.13;;;18.24;90.39
81704;BME280;71117;52.352;4.808;2023-10-13T05:41:18;100591.44;;;18.28;89.56
81704;BME280;71117;52.352;4.808;2023-10-13T05:44:02;100588.91;;;18.20;90.21
81704;BME280;71117;52.352;4.808;2023-10-13T05:46:46;100579.88;;;18.28;89.68
81704;BME280;71117;52.352;4.808;2023-10-13T05:49:15;100568.41;;;18.21;90.06
81704;BME280;71117;52.352;4.808;2023-10-13T05:51:40;100560.25;;;18.29;89.79
81704;BME280;71117;52.352;4.808;2023-10-13T05:54:13;100553.97;;;18.31;89.32
81704;BME280;71117;52.352;4.808;2023-10-13T05:56:46;100546.00;;;18.30;89.46
81704;BME280;71117;52.352;4.808;2023-10-13T05:59:31;100555.78;;;18.29;89.43
81704;BME280;71117;52.352;4.808;2023-10-13T06:02:16;100546.00;;;18.28;89.45
81704;BME280;71117;52.352;4.808;2023-10-13T06:05:05;100549.63;;;18.26;89.74
81704;BME280;71117;52.352;4.808;2023-10-13T06:07:50;100555.91;;;18.23;89.67
81704;BME280;71117;52.352;4.808;2023-10-13T06:10:34;100556.00;;;18.18;89.33
81704;BME280;71117;52.352;4.808;2023-10-13T06:13:18;100537.19;;;18.24;88.62
81704;BME280;71117;52.352;4.808;2023-10-13T06:16:16;100538.03;;;18.27;87.90
81704;BME280;71117;52.352;4.808;2023-10-13T06:19:01;100545.31;;;18.18;87.79
81704;BME280;71117;52.352;4.808;2023-10-13T06:21:45;100526.59;;;18.18;87.53
81704;BME280;71117;52.352;4.808;2023-10-13T06:24:30;100521.47;;;18.06;87.96
81704;BME280;71117;52.352;4.808;2023-10-13T06:27:15;100528.38;;;18.19;87.47
81704;BME280;71117;52.352;4.808;2023-10-13T06:29:59;100539.06;;;18.18;87.69
81704;BME280;71117;52.352;4.808;2023-10-13T06:32:26;100521.38;;;18.11;87.59
81704;BME280;71117;52.352;4.808;2023-10-13T06:34:56;100528.63;;;18.04;87.82
81704;BME280;71117;52.352;4.808;2023-10-13T06:37:30;100526.19;;;17.92;88.21
81704;BME280;71117;52.352;4.808;2023-10-13T06:40:02;100530.47;;;18.01;87.47
81704;BME280;71117;52.352;4.808;2023-10-13T06:42:32;100519.66;;;18.08;87.36
81704;BME280;71117;52.352;4.808;2023-10-13T06:45:00;100518.78;;;18.06;87.17
81704;BME280;71117;52.352;4.808;2023-10-13T06:47:34;100519.66;;;18.07;87.55
81704;BME280;71117;52.352;4.808;2023-10-13T06:50:06;100502.06;;;17.96;87.46
81704;BME280;71117;52.352;4.808;2023-10-13T06:52:40;100508.34;;;17.94;87.96
81704;BME280;71117;52.352;4.808;2023-10-13T06:55:08;100500.22;;;18.00;87.99
81704;BME280;71117;52.352;4.808;2023-10-13T06:57:45;100496.72;;;17.96;88.05
81704;BME280;71117;52.352;4.808;2023-10-13T07:00:12;100501.88;;;18.06;87.78
81704;BME280;71117;52.352;4.808;2023-10-13T07:03:13;100489.50;;;18.02;88.47
81704;BME280;71117;52.352;4.808;2023-10-13T07:05:44;100481.59;;;17.95;88.56
81704;BME280;71117;52.352;4.808;2023-10-13T07:08:13;100493.88;;;18.06;88.74
81704;BME280;71117;52.352;4.808;2023-10-13T07:10:49;100489.34;;;18.09;89.04
81704;BME280;71117;52.352;4.808;2023-10-13T07:13:27;100484.94;;;18.08;89.42
81704;BME280;71117;52.352;4.808;2023-10-13T07:15:53;100475.16;;;18.07;89.88
81704;BME280;71117;52.352;4.808;2023-10-13T07:18:25;100472.44;;;18.09;90.35
81704;BME280;71117;52.352;4.808;2023-10-13T07:20:51;100464.31;;;18.15;91.02
81704;BME280;71117;52.352;4.808;2023-10-13T07:23:20;100455.91;;;18.33;90.65
81704;BME280;71117;52.352;4.808;2023-10-13T07:25:55;100458.50;;;18.38;90.53
81704;BME280;71117;52.352;4.808;2023-10-13T07:28:28;100441.28;;;18.51;90.04
81704;BME280;71117;52.352;4.808;2023-10-13T07:30:53;100440.25;;;18.58;90.19
81704;BME280;71117;52.352;4.808;2023-10-13T07:33:18;100428.53;;;18.64;89.77
81704;BME280;71117;52.352;4.808;2023-10-13T07:35:47;100437.16;;;18.78;89.55
81704;BME280;71117;52.352;4.808;2023-10-13T07:38:19;100435.25;;;18.83;89.29
81704;BME280;71117;52.352;4.808;2023-10-13T07:40:46;100435.97;;;18.91;89.20
81704;BME280;71117;52.352;4.808;2023-10-13T07:43:18;100433.78;;;18.68;89.65
81704;BME280;71117;52.352;4.808;2023-10-13T07:45:47;100439.13;;;18.68;89.92
81704;BME280;71117;52.352;4.808;2023-10-13T07:48:17;100441.81;;;18.70;89.93
81704;BME280;71117;52.352;4.808;2023-10-13T07:50:47;100433.41;;;18.87;89.29
81704;BME280;71117;52.352;4.808;2023-10-13T07:53:14;100420.00;;;18.87;89.38
81704;BME280;71117;52.352;4.808;2023-10-13T07:55:50;100418.28;;;18.84;89.22
81704;BME280;71117;52.352;4.808;2023-10-13T07:58:25;100446.53;;;18.96;89.23
81704;BME280;71117;52.352;4.808;2023-10-13T08:00:51;100426.19;;;18.89;89.60
81704;BME280;71117;52.352;4.808;2023-10-13T08:03:35;100411.84;;;18.93;89.50
81704;BME280;71117;52.352;4.808;2023-10-13T08:06:11;100415.19;;;19.01;88.75
81704;BME280;71117;52.352;4.808;2023-10-13T08:08:37;100416.94;;;19.02;88.56
81704;BME280;71117;52.352;4.808;2023-10-13T08:11:07;100416.06;;;19.03;88.66
81704;BME280;71117;52.352;4.808;2023-10-13T08:13:48;100410.78;;;19.00;88.27
81704;BME280;71117;52.352;4.808;2023-10-13T08:16:25;100406.19;;;19.05;88.63
81704;BME280;71117;52.352;4.808;2023-10-13T08:19:11;100403.31;;;19.14;87.39
81704;BME280;71117;52.352;4.808;2023-10-13T08:21:42;100410.56;;;19.09;87.76
81704;BME280;71117;52.352;4.808;2023-10-13T08:24:15;100399.84;;;19.09;87.61
81704;BME280;71117;52.352;4.808;2023-10-13T08:26:41;100399.69;;;19.15;87.47
81704;BME280;71117;52.352;4.808;2023-10-13T08:29:30;100392.50;;;19.17;87.17
81704;BME280;71117;52.352;4.808;2023-10-13T08:31:55;100379.16;;;19.16;86.82
81704;BME280;71117;52.352;4.808;2023-10-13T08:34:33;100376.38;;;19.20;86.30
81704;BME280;71117;52.352;4.808;2023-10-13T08:37:30;100373.72;;;19.19;85.74
81704;BME280;71117;52.352;4.808;2023-10-13T08:39:59;100373.31;;;19.34;84.47
81704;BME280;71117;52.352;4.808;2023-10-13T08:45:15;100366.75;;;19.47;83.27
81704;BME280;71117;52.352;4.808;2023-10-13T08:47:57;100372.94;;;19.49;83.39
81704;BME280;71117;52.352;4.808;2023-10-13T08:50:50;100370.25;;;19.49;83.50
81704;BME280;71117;52.352;4.808;2023-10-13T08:56:06;100368.41;;;19.51;80.07
81704;BME280;71117;52.352;4.808;2023-10-13T08:58:36;100355.94;;;19.50;81.27
81704;BME280;71117;52.352;4.808;2023-10-13T09:01:20;100352.25;;;19.54;80.08
81704;BME280;71117;52.352;4.808;2023-10-13T09:04:07;100349.59;;;19.54;80.90
81704;BME280;71117;52.352;4.808;2023-10-13T09:06:53;100345.78;;;19.65;79.94
81704;BME280;71117;52.352;4.808;2023-10-13T09:09:29;100330.41;;;19.71;80.18
81704;BME280;71117;52.352;4.808;2023-10-13T09:12:11;100333.13;;;19.70;79.81
81704;BME280;71117;52.352;4.808;2023-10-13T09:14:38;100335.81;;;19.70;79.65
81704;BME280;71117;52.352;4.808;2023-10-13T09:17:09;100335.34;;;19.87;79.84
81704;BME280;71117;52.352;4.808;2023-10-13T09:19:48;100318.13;;;19.94;78.67
81704;BME280;71117;52.352;4.808;2023-10-13T09:22:27;100323.50;;;19.94;78.53
81704;BME280;71117;52.352;4.808;2023-10-13T09:24:59;100320.69;;;19.98;78.75
81704;BME280;71117;52.352;4.808;2023-10-13T09:27:27;100308.97;;;20.01;78.95
81704;BME280;71117;52.352;4.808;2023-10-13T09:30:00;100303.00;;;19.93;78.56
81704;BME280;71117;52.352;4.808;2023-10-13T09:33:02;100308.38;;;19.91;79.36
81704;BME280;71117;52.352;4.808;2023-10-13T09:35:31;100299.88;;;20.06;78.40
81704;BME280;71117;52.352;4.808;2023-10-13T09:38:00;100299.88;;;20.06;78.22
81704;BME280;71117;52.352;4.808;2023-10-13T09:40:29;100303.63;;;20.01;78.19
81704;BME280;71117;52.352;4.808;2023-10-13T09:43:04;100299.06;;;20.04;78.40
81704;BME280;71117;52.352;4.808;2023-10-13T09:45:41;100297.94;;;20.12;77.13
81704;BME280;71117;52.352;4.808;2023-10-13T09:48:31;100298.06;;;20.07;76.10
81704;BME280;71117;52.352;4.808;2023-10-13T09:51:04;100286.09;;;20.19;75.70
81704;BME280;71117;52.352;4.808;2023-10-13T09:53:35;100292.78;;;20.33;75.72
81704;BME280;71117;52.352;4.808;2023-10-13T09:56:12;100271.28;;;20.35;75.64
81704;BME280;71117;52.352;4.808;2023-10-13T09:59:02;100282.81;;;20.39;76.67
81704;BME280;71117;52.352;4.808;2023-10-13T10:01:40;100275.03;;;20.29;76.47
81704;BME280;71117;52.352;4.808;2023-10-13T10:04:16;100275.50;;;20.42;75.21
81704;BME280;71117;52.352;4.808;2023-10-13T10:06:52;100270.53;;;20.59;75.21
81704;BME280;71117;52.352;4.808;2023-10-13T10:09:17;100269.41;;;20.67;74.24
81704;BME280;71117;52.352;4.808;2023-10-13T10:14:42;100268.50;;;20.93;74.21
81704;BME280;71117;52.352;4.808;2023-10-13T10:17:13;100258.91;;;21.12;72.89
81704;BME280;71117;52.352;4.808;2023-10-13T10:19:50;100268.25;;;21.52;71.84
81704;BME280;71117;52.352;4.808;2023-10-13T10:22:28;100288.19;;;21.70;71.63
81704;BME280;71117;52.352;4.808;2023-10-13T10:25:04;100266.25;;;21.57;71.74
81704;BME280;71117;52.352;4.808;2023-10-13T10:27:55;100263.19;;;21.68;70.96
81704;BME280;71117;52.352;4.808;2023-10-13T10:30:28;100259.94;;;21.58;70.27
81704;BME280;71117;52.352;4.808;2023-10-13T10:32:55;100257.03;;;21.64;70.11
81704;BME280;71117;52.352;4.808;2023-10-13T10:35:59;100259.63;;;21.67;69.63
81704;BME280;71117;52.352;4.808;2023-10-13T10:38:24;100255.28;;;21.86;69.71
81704;BME280;71117;52.352;4.808;2023-10-13T10:41:02;100235.41;;;21.90;68.46
81704;BME280;71117;52.352;4.808;2023-10-13T10:43:39;100267.84;;;21.86;68.42
81704;BME280;71117;52.352;4.808;2023-10-13T10:46:39;100236.28;;;21.91;67.87
81704;BME280;71117;52.352;4.808;2023-10-13T10:49:07;100233.59;;;21.91;68.35
81704;BME280;71117;52.352;4.808;2023-10-13T10:51:36;100221.72;;;21.97;68.88
81704;BME280;71117;52.352;4.808;2023-10-13T10:54:18;100233.22;;;21.78;68.03
81704;BME280;71117;52.352;4.808;2023-10-13T10:56:43;100225.19;;;21.77;68.26
81704;BME280;71117;52.352;4.808;2023-10-13T10:59:09;100225.59;;;21.66;69.11
81704;BME280;71117;52.352;4.808;2023-10-13T11:01:44;100229.13;;;21.68;69.71
81704;BME280;71117;52.352;4.808;2023-10-13T11:04:13;100224.44;;;21.50;68.31
81704;BME280;71117;52.352;4.808;2023-10-13T11:06:54;100225.34;;;21.49;66.89
81704;BME280;71117;52.352;4.808;2023-10-13T11:09:30;100224.16;;;21.57;68.35
81704;BME280;71117;52.352;4.808;2023-10-13T11:12:08;100217.44;;;21.46;68.81
81704;BME280;71117;52.352;4.808;2023-10-13T11:15:11;100203.22;;;21.42;69.18
81704;BME280;71117;52.352;4.808;2023-10-13T11:17:48;100182.91;;;21.35;68.11
81704;BME280;71117;52.352;4.808;2023-10-13T11:20:18;100190.38;;;21.25;69.25
81704;BME280;71117;52.352;4.808;2023-10-13T11:22:51;100204.69;;;21.26;68.87
81704;BME280;71117;52.352;4.808;2023-10-13T11:25:26;100215.50;;;21.24;68.65
81704;BME280;71117;52.352;4.808;2023-10-13T11:28:14;100206.13;;;21.36;68.30
81704;BME280;71117;52.352;4.808;2023-10-13T11:30:46;100198.22;;;21.33;68.41
81704;BME280;71117;52.352;4.808;2023-10-13T11:33:16;100220.97;;;21.21;69.46
81704;BME280;71117;52.352;4.808;2023-10-13T11:36:02;100195.69;;;21.27;67.88
81704;BME280;71117;52.352;4.808;2023-10-13T11:38:31;100202.34;;;21.42;67.21
81704;BME280;71117;52.352;4.808;2023-10-13T11:41:06;100211.75;;;21.53;67.17
81704;BME280;71117;52.352;4.808;2023-10-13T11:46:19;100201.53;;;21.39;67.20
81704;BME280;71117;52.352;4.808;2023-10-13T11:49:08;100204.22;;;21.39;67.35
81704;BME280;71117;52.352;4.808;2023-10-13T11:51:46;100201.56;;;21.38;67.42
81704;BME280;71117;52.352;4.808;2023-10-13T11:56:38;100189.25;;;21.32;67.46
81704;BME280;71117;52.352;4.808;2023-10-13T11:59:04;100191.06;;;21.32;66.56
81704;BME280;71117;52.352;4.808;2023-10-13T12:01:36;100181.09;;;21.35;66.84
81704;BME280;71117;52.352;4.808;2023-10-13T12:04:20;100215.22;;;21.32;67.72
81704;BME280;71117;52.352;4.808;2023-10-13T12:07:04;100191.13;;;21.30;66.71
81704;BME280;71117;52.352;4.808;2023-10-13T12:09:39;100195.56;;;21.31;66.74
81704;BME280;71117;52.352;4.808;2023-10-13T12:12:23;100195.66;;;21.03;69.99
81704;BME280;71117;52.352;4.808;2023-10-13T12:14:49;100205.47;;;20.79;70.88
81704;BME280;71117;52.352;4.808;2023-10-13T12:17:27;100206.16;;;20.59;71.56
81704;BME280;71117;52.352;4.808;2023-10-13T12:19:59;100189.56;;;20.47;73.22
81704;BME280;71117;52.352;4.808;2023-10-13T12:22:25;100184.50;;;20.38;73.34
81704;BME280;71117;52.352;4.808;2023-10-13T12:24:56;100165.97;;;20.30;74.61
81704;BME280;71117;52.352;4.808;2023-10-13T12:27:22;100190.44;;;20.19;75.50
81704;BME280;71117;52.352;4.808;2023-10-13T12:30:00;100187.75;;;20.21;75.95
81704;BME280;71117;52.352;4.808;2023-10-13T12:32:33;100176.50;;;20.10;75.51
81704;BME280;71117;52.352;4.808;2023-10-13T12:35:00;100180.66;;;20.18;75.79
81704;BME280;71117;52.352;4.808;2023-10-13T12:37:45;100172.63;;;20.18;75.29
81704;BME280;71117;52.352;4.808;2023-10-13T12:40:16;100185.16;;;20.18;75.31
81704;BME280;71117;52.352;4.808;2023-10-13T12:43:00;100152.69;;;20.27;74.95
81704;BME280;71117;52.352;4.808;2023-10-13T12:45:48;100149.13;;;20.26;73.23
81704;BME280;71117;52.352;4.808;2023-10-13T12:48:33;100159.88;;;20.25;75.26
81704;BME280;71117;52.352;4.808;2023-10-13T12:51:17;100157.19;;;20.25;75.81
81704;BME280;71117;52.352;4.808;2023-10-13T12:53:56;100152.59;;;20.02;77.80
81704;BME280;71117;52.352;4.808;2023-10-13T12:56:30;100157.41;;;19.92;78.24
81704;BME280;71117;52.352;4.808;2023-10-13T12:58:55;100160.09;;;19.91;77.80
81704;BME280;71117;52.352;4.808;2023-10-13T13:01:21;100182.53;;;19.88;77.15
81704;BME280;71117;52.352;4.808;2023-10-13T13:03:51;100160.34;;;20.11;77.85
81704;BME280;71117;52.352;4.808;2023-10-13T13:06:22;100111.84;;;19.92;77.34
81704;BME280;71117;52.352;4.808;2023-10-13T13:08:56;100152.03;;;19.92;79.21
81704;BME280;71117;52.352;4.808;2023-10-13T13:11:23;100138.19;;;20.06;78.20
81704;BME280;71117;52.352;4.808;2023-10-13T13:13:48;100150.94;;;20.26;77.37
81704;BME280;71117;52.352;4.808;2023-10-13T13:16:19;100155.00;;;20.11;77.00
81704;BME280;71117;52.352;4.808;2023-10-13T13:18:51;100147.56;;;20.19;78.03
81704;BME280;71117;52.352;4.808;2023-10-13T13:21:20;100153.13;;;20.13;77.10
81704;BME280;71117;52.352;4.808;2023-10-13T13:23:51;100165.50;;;20.17;76.78
81704;BME280;71117;52.352;4.808;2023-10-13T13:26:16;100170.66;;;20.23;77.50
81704;BME280;71117;52.352;4.808;2023-10-13T13:28:43;100165.66;;;20.13;77.46
81704;BME280;71117;52.352;4.808;2023-10-13T13:31:08;100156.44;;;20.21;77.89
81704;BME280;71117;52.352;4.808;2023-10-13T13:33:35;100136.00;;;20.17;78.25
81704;BME280;71117;52.352;4.808;2023-10-13T13:36:06;100147.31;;;20.27;78.08
81704;BME280;71117;52.352;4.808;2023-10-13T13:38:32;100164.22;;;20.29;79.35
81704;BME280;71117;52.352;4.808;2023-10-13T13:40:59;100155.28;;;20.02;79.66
81704;BME280;71117;52.352;4.808;2023-10-13T13:43:26;100131.94;;;20.05;80.36